Aeroporto :
LOGIN :

Iscrizione | Disclaimer

   EN    FR    IT 

 










Sommario :    VFR   VFR Marginale   IFR   IFR Intensivo   IFR Molto Intensivo
Visibilità : 
Base nubi : 
>= 8 km
>= 3000ft
5 / 8 km
1000 / 3000 ft
1500m / 5 km
500 / 1000 ft
800 / 1500m
200 / 500 ft
< 800m
< 200 ft
Simboli :   Temporali  Nebbia  Neve Forte  Precipitazioni Forti  Vento > 20 kt
SIGMETs :   Varie  Temporali  Ghiacco  Turbolenza  Onda orograficha  Ceneri Vulcaniche






- Altitudine del aeroporto : 112 ft
- Codice IATA : SVQ


LEZL - Sevilla San Pablo

ULTIMO METAR :
  • 271430Z 06004KT 330V120 CAVOK 27/09 Q1013 NOSIG

METARs OBSOLETI :
  • 271400Z 05005KT 350V140 CAVOK 27/09 Q1013 NOSIG
  • 271330Z 06007KT 020V120 CAVOK 26/10 Q1013 NOSIG
  • 271300Z 01007KT 320V080 CAVOK 26/11 Q1014 NOSIG
  • 271230Z 05006KT 330V120 9999 FEW045 25/10 Q1014 NOSIG
  • 271200Z 03005KT 340V110 9999 FEW045 25/11 Q1014 NOSIG

TAF TAF LEZL
Valido dal 27 a 15 ore il 28 a 15 ore UTC


271400Z 2715/2815 04006KT CAVOK TX32/2815Z TN16/2806Z



MetMap, La meteo Aeronautica in un colpo d'occhio ! - Copyright ORBIFLY Dicembre 2007 - Disclaimer

ORBIFLY MET'MAP TEAM :

Programmazione e sviluppo : Alexandra Zaïnal
Concezione : Baudouin d'Aumeries
Aiuto per la programmazione : Marc-Olivier Méhu
Supporto tecnico e logistico : Manuel Goepfert
Aiuto per la traduzione : Arnaldo La Scala

Contatto : metmap@orbifly.com




FONTI E CREDITI :

   NOAA